createdAt,value
2023-02-02T00:00:42.350Z,2.8
2023-02-02T00:01:58.630Z,2.6
2023-02-02T00:03:14.927Z,2.6
2023-02-02T00:04:31.230Z,2.6
2023-02-02T00:05:47.524Z,2.4
2023-02-02T00:07:02.845Z,3.1
2023-02-02T00:08:19.139Z,2.6
2023-02-02T00:10:51.727Z,2.7
2023-02-02T00:12:08.020Z,2.7
2023-02-02T00:13:24.311Z,3.1
2023-02-02T00:14:40.595Z,3.4
2023-02-02T00:15:56.893Z,3.1
2023-02-02T00:17:13.188Z,3.4
2023-02-02T00:18:29.498Z,3.2
2023-02-02T00:19:45.779Z,3.1
2023-02-02T00:21:02.077Z,2.9
2023-02-02T00:22:18.381Z,3.1
2023-02-02T00:23:33.680Z,3.2
2023-02-02T00:24:49.985Z,3.5
2023-02-02T00:26:05.303Z,2.8
2023-02-02T00:27:20.613Z,3.5
2023-02-02T00:28:36.902Z,3.3
2023-02-02T00:29:53.199Z,3.2
2023-02-02T00:31:09.484Z,3.2
2023-02-02T00:32:25.777Z,3.1
2023-02-02T00:33:42.075Z,3.1
2023-02-02T00:34:58.364Z,3.2
2023-02-02T00:36:14.675Z,2.8
2023-02-02T00:37:30.969Z,3
2023-02-02T00:38:47.267Z,3
2023-02-02T00:40:02.571Z,2.9
2023-02-02T00:41:17.875Z,2.9
2023-02-02T00:42:34.172Z,3.3
2023-02-02T00:45:06.763Z,3.2
2023-02-02T00:46:23.075Z,3.1
2023-02-02T00:47:39.357Z,3
2023-02-02T00:48:55.662Z,3.5
2023-02-02T00:50:11.942Z,3
2023-02-02T00:51:28.235Z,3
2023-02-02T00:52:44.547Z,3.1
2023-02-02T00:54:00.827Z,3.2
2023-02-02T00:55:17.128Z,3.1
2023-02-02T00:56:33.413Z,3.2
2023-02-02T00:57:48.737Z,3.1
2023-02-02T01:00:21.321Z,3.2
2023-02-02T01:01:36.630Z,3.2
2023-02-02T01:02:53.049Z,3.3
2023-02-02T01:04:09.356Z,3.2
2023-02-02T01:05:25.649Z,3.3
2023-02-02T01:06:41.935Z,3.2
2023-02-02T01:07:58.000Z,3.5
2023-02-02T01:09:14.541Z,2.9
2023-02-02T01:10:30.834Z,3.3
2023-02-02T01:11:47.119Z,3.2
2023-02-02T01:13:03.413Z,3.2
2023-02-02T01:14:19.715Z,3.1
2023-02-02T01:15:35.032Z,3.2
2023-02-02T01:16:50.337Z,3.3
2023-02-02T01:18:06.623Z,3.2
2023-02-02T01:19:22.930Z,3.1
2023-02-02T01:21:55.512Z,2.9
2023-02-02T01:23:11.800Z,2.9
2023-02-02T01:24:28.108Z,2.8
2023-02-02T01:25:44.392Z,3.2
2023-02-02T01:27:00.704Z,3
2023-02-02T01:28:16.980Z,3.1
2023-02-02T01:29:33.280Z,2.8
2023-02-02T01:30:49.585Z,3.1
2023-02-02T01:32:05.866Z,2.8
2023-02-02T01:33:21.193Z,2.8
2023-02-02T01:34:37.476Z,2.8
2023-02-02T01:35:53.779Z,2.6
2023-02-02T01:37:10.068Z,2.7
2023-02-02T01:38:26.365Z,2.7
2023-02-02T01:39:42.667Z,2.7
2023-02-02T01:40:58.957Z,2.7
2023-02-02T01:42:15.255Z,2.8
2023-02-02T01:43:31.551Z,2.8
2023-02-02T01:44:47.842Z,3
2023-02-02T01:46:04.141Z,2.7
2023-02-02T01:47:20.430Z,2.8
2023-02-02T01:48:36.725Z,2.8
2023-02-02T01:49:52.030Z,2.6
2023-02-02T01:51:08.337Z,2.8
2023-02-02T01:52:24.630Z,2.9
2023-02-02T01:53:40.909Z,2.4
2023-02-02T01:54:57.203Z,2.5
2023-02-02T01:56:13.502Z,2.7
2023-02-02T01:57:29.790Z,2.5
2023-02-02T01:58:46.091Z,2.4
2023-02-02T02:00:02.387Z,3
2023-02-02T02:01:18.693Z,2.4
2023-02-02T02:02:34.970Z,2.5
2023-02-02T02:03:51.273Z,2.6
2023-02-02T02:05:07.572Z,2.3
2023-02-02T02:06:22.890Z,2.5
2023-02-02T02:07:39.176Z,2.6
2023-02-02T02:08:55.468Z,2.5
2023-02-02T02:10:11.768Z,2.7
2023-02-02T02:11:28.051Z,2.4
2023-02-02T02:12:44.343Z,2.2
2023-02-02T02:14:00.654Z,2.6
2023-02-02T02:15:16.933Z,2.4
2023-02-02T02:16:33.232Z,2.7
2023-02-02T02:17:49.523Z,2.4
2023-02-02T02:19:05.823Z,2.3
2023-02-02T02:20:22.112Z,2.2
2023-02-02T02:21:38.411Z,2.2
2023-02-02T02:22:53.726Z,2.5
2023-02-02T02:24:10.021Z,2.6
2023-02-02T02:25:26.313Z,2.2
2023-02-02T02:26:42.609Z,2.4
2023-02-02T02:27:58.913Z,2.7
2023-02-02T02:29:15.206Z,2.3
2023-02-02T02:30:31.503Z,2.2
2023-02-02T02:31:47.788Z,2.2
2023-02-02T02:33:04.078Z,2.6
2023-02-02T02:34:20.379Z,2.3
2023-02-02T02:35:36.671Z,2.5
2023-02-02T02:36:52.975Z,2.3
2023-02-02T02:38:09.277Z,2.2
2023-02-02T02:39:24.576Z,2.5
2023-02-02T02:41:57.157Z,2.5
2023-02-02T02:43:13.464Z,2.4
2023-02-02T02:44:29.753Z,2.5
2023-02-02T02:47:02.335Z,2.3
2023-02-02T02:48:18.642Z,2.6
2023-02-02T02:49:34.930Z,2.6
2023-02-02T02:50:51.234Z,2.4
2023-02-02T02:52:07.523Z,2.2
2023-02-02T02:53:23.808Z,2.3
2023-02-02T02:54:40.108Z,2.6
2023-02-02T02:55:55.426Z,2.3
2023-02-02T02:57:11.710Z,2.1
2023-02-02T02:58:28.002Z,2.2
2023-02-02T02:59:44.300Z,2.3
2023-02-02T03:01:00.607Z,2.3
2023-02-02T03:02:16.896Z,2
2023-02-02T03:03:33.182Z,2.2
2023-02-02T03:04:49.484Z,2.2
2023-02-02T03:06:05.778Z,2.4
2023-02-02T03:07:22.067Z,1.9
2023-02-02T03:08:38.361Z,2.1
2023-02-02T03:09:54.668Z,2.1
2023-02-02T03:11:10.948Z,2.5
2023-02-02T03:12:26.276Z,2.2
2023-02-02T03:13:42.561Z,2.3
2023-02-02T03:14:58.861Z,2.2
2023-02-02T03:16:15.162Z,2.3
2023-02-02T03:17:31.452Z,1.9
2023-02-02T03:18:47.742Z,2.1
2023-02-02T03:20:04.041Z,2.1
2023-02-02T03:21:20.342Z,2.1
2023-02-02T03:22:36.633Z,2
2023-02-02T03:23:52.923Z,2.1
2023-02-02T03:25:09.206Z,1.8
2023-02-02T03:26:25.512Z,1.9
2023-02-02T03:27:41.810Z,2.3
2023-02-02T03:28:58.096Z,1.9
2023-02-02T03:30:13.407Z,1.8
2023-02-02T03:31:29.700Z,2.1
2023-02-02T03:32:46.007Z,2.1
2023-02-02T03:34:02.297Z,2.1
2023-02-02T03:35:18.586Z,2.3
2023-02-02T03:36:34.888Z,1.9
2023-02-02T03:37:51.184Z,2
2023-02-02T03:39:07.467Z,2.1
2023-02-02T03:40:23.761Z,2
2023-02-02T03:41:40.069Z,2
2023-02-02T03:42:56.347Z,1.9
2023-02-02T03:44:12.649Z,1.9
2023-02-02T03:45:28.943Z,1.9
2023-02-02T03:46:44.251Z,1.8
2023-02-02T03:48:00.547Z,1.8
2023-02-02T03:49:15.864Z,2
2023-02-02T03:50:32.169Z,2.1
2023-02-02T03:51:48.452Z,2.1
2023-02-02T03:53:04.759Z,1.9
2023-02-02T03:54:21.048Z,1.8
2023-02-02T03:55:37.329Z,2
2023-02-02T03:56:53.627Z,1.9
2023-02-02T03:58:09.931Z,2.2
2023-02-02T03:59:26.228Z,1.8
2023-02-02T04:00:42.528Z,2
2023-02-02T04:01:58.815Z,1.8
2023-02-02T04:03:15.106Z,2.1
2023-02-02T04:04:31.394Z,2.2
2023-02-02T04:05:46.710Z,1.8
2023-02-02T04:07:03.007Z,2
2023-02-02T04:08:19.310Z,2.2
2023-02-02T04:09:35.593Z,2
2023-02-02T04:10:51.882Z,1.9
2023-02-02T04:12:08.190Z,2
2023-02-02T04:13:24.484Z,1.8
2023-02-02T04:14:40.772Z,1.9
2023-02-02T04:15:57.061Z,1.7
2023-02-02T04:18:29.655Z,1.9
2023-02-02T04:19:45.957Z,1.7
2023-02-02T04:21:02.255Z,2
2023-02-02T04:22:17.555Z,2.1
2023-02-02T04:23:33.861Z,1.8
2023-02-02T04:26:06.440Z,1.9
2023-02-02T04:27:22.738Z,1.7
2023-02-02T04:28:39.034Z,1.9
2023-02-02T04:29:55.338Z,1.8
2023-02-02T04:31:11.620Z,1.9
2023-02-02T04:32:27.924Z,1.8
2023-02-02T04:33:44.207Z,2
2023-02-02T04:35:00.506Z,1.8
2023-02-02T04:36:16.801Z,2.1
2023-02-02T04:37:33.099Z,1.9
2023-02-02T04:38:48.410Z,1.8
2023-02-02T04:41:20.997Z,2
2023-02-02T04:42:37.293Z,1.7
2023-02-02T04:43:52.599Z,2.1
2023-02-02T04:45:07.912Z,1.8
2023-02-02T04:46:24.216Z,1.8
2023-02-02T04:48:56.812Z,1.8
2023-02-02T04:50:13.093Z,1.7
2023-02-02T04:51:29.403Z,1.9
2023-02-02T04:52:45.681Z,1.9
2023-02-02T04:54:01.984Z,1.9
2023-02-02T04:55:18.271Z,2
2023-02-02T04:56:34.571Z,1.7
2023-02-02T04:57:50.861Z,1.8
2023-02-02T04:59:07.166Z,2.1
2023-02-02T05:00:23.457Z,1.8
2023-02-02T05:01:38.769Z,1.9
2023-02-02T05:02:55.068Z,1.9
2023-02-02T05:04:11.356Z,1.8
2023-02-02T05:05:27.643Z,1.9
2023-02-02T05:06:43.954Z,2
2023-02-02T05:08:00.241Z,2.1
2023-02-02T05:09:16.536Z,1.9
2023-02-02T05:10:32.825Z,1.9
2023-02-02T05:11:48.150Z,2.2
2023-02-02T05:13:03.462Z,1.7
2023-02-02T05:14:19.761Z,1.9
2023-02-02T05:15:36.039Z,2
2023-02-02T05:16:52.334Z,2.2
2023-02-02T05:18:08.645Z,2.2
2023-02-02T05:19:24.936Z,2
2023-02-02T05:20:41.219Z,2.3
2023-02-02T05:21:57.511Z,2
2023-02-02T05:23:13.814Z,2
2023-02-02T05:24:30.104Z,1.8
2023-02-02T05:25:46.401Z,2
2023-02-02T05:27:02.707Z,2
2023-02-02T05:28:18.997Z,2
2023-02-02T05:29:34.303Z,2
2023-02-02T05:30:50.593Z,2.1
2023-02-02T05:32:06.895Z,2.1
2023-02-02T05:33:23.190Z,2.5
2023-02-02T05:34:39.484Z,3.2
2023-02-02T05:35:55.768Z,2.7
2023-02-02T05:37:12.077Z,2.8
2023-02-02T05:38:28.369Z,2.7
2023-02-02T05:39:44.667Z,2.5
2023-02-02T05:41:00.952Z,3.8
2023-02-02T05:42:17.256Z,3.4
2023-02-02T05:43:33.553Z,2.5
2023-02-02T05:44:49.832Z,3
2023-02-02T05:46:05.141Z,2.4
2023-02-02T05:47:21.453Z,1.9
2023-02-02T05:48:37.736Z,1.9
2023-02-02T05:49:54.031Z,2.2
2023-02-02T05:51:10.329Z,2
2023-02-02T05:52:26.622Z,1.8
2023-02-02T05:53:42.910Z,1.9
2023-02-02T05:54:59.201Z,2.1
2023-02-02T05:56:15.504Z,2.4
2023-02-02T05:57:31.810Z,3.1
2023-02-02T05:58:48.103Z,3.3
2023-02-02T06:00:04.386Z,3.5
2023-02-02T06:01:20.682Z,3.8
2023-02-02T06:02:36.003Z,3.4
2023-02-02T06:03:52.284Z,3.9
2023-02-02T06:05:08.578Z,3.8
2023-02-02T06:06:24.880Z,3.3
2023-02-02T06:07:41.178Z,2.3
2023-02-02T06:08:57.476Z,2.9
2023-02-02T06:10:13.769Z,2.6
2023-02-02T06:11:30.052Z,2.4
2023-02-02T06:12:46.354Z,2.5
2023-02-02T06:14:02.590Z,2.2
2023-02-02T06:15:18.894Z,2.3
2023-02-02T06:16:35.180Z,2
2023-02-02T06:17:51.426Z,2.5
2023-02-02T06:19:06.742Z,2
2023-02-02T06:20:23.049Z,2.2
2023-02-02T06:21:39.296Z,2.3
2023-02-02T06:22:55.526Z,2.2
2023-02-02T06:24:11.820Z,2.5
2023-02-02T06:25:28.087Z,2.1
2023-02-02T06:26:44.315Z,2.2
2023-02-02T06:28:00.556Z,2.1
2023-02-02T06:29:16.803Z,2.3
2023-02-02T06:30:33.044Z,2.1
2023-02-02T06:31:49.275Z,2
2023-02-02T06:33:05.529Z,2.5
2023-02-02T06:34:21.772Z,2.4
2023-02-02T06:35:37.014Z,2.4
2023-02-02T06:36:53.265Z,2.5
2023-02-02T06:38:09.509Z,2.4
2023-02-02T06:39:25.741Z,2.4
2023-02-02T06:40:41.990Z,2.6
2023-02-02T06:41:58.225Z,2.8
2023-02-02T06:43:14.465Z,2.7
2023-02-02T06:44:30.698Z,2.1
2023-02-02T06:45:46.952Z,2.4
2023-02-02T06:47:03.180Z,2.4
2023-02-02T06:48:19.434Z,2.6
2023-02-02T06:50:51.903Z,2.3
2023-02-02T06:52:07.163Z,2.5
2023-02-02T06:53:23.411Z,2.3
2023-02-02T06:54:39.640Z,2.5
2023-02-02T06:55:55.882Z,2.6
2023-02-02T06:57:12.132Z,2.2
2023-02-02T06:58:28.367Z,2.2
2023-02-02T06:59:44.614Z,2.2
2023-02-02T07:02:17.086Z,2.2
2023-02-02T07:03:33.330Z,2.4
2023-02-02T07:04:49.576Z,2.3
2023-02-02T07:06:05.820Z,2.1
2023-02-02T07:07:22.062Z,2
2023-02-02T07:08:37.322Z,2.6
2023-02-02T07:09:53.545Z,2.5
2023-02-02T07:11:09.000Z,2.4
2023-02-02T07:12:26.029Z,2.5
2023-02-02T07:13:42.276Z,2.2
2023-02-02T07:14:58.513Z,2.2
2023-02-02T07:16:14.747Z,2.5
2023-02-02T07:17:30.999Z,2.7
2023-02-02T07:18:47.233Z,2.9
2023-02-02T07:20:03.480Z,3.1
2023-02-02T07:21:19.723Z,3.4
2023-02-02T07:22:35.967Z,4.1
2023-02-02T07:23:52.209Z,2.2
2023-02-02T07:25:07.461Z,2.6
2023-02-02T07:26:23.688Z,2.5
2023-02-02T07:27:39.948Z,2.3
2023-02-02T07:28:56.189Z,2.8
2023-02-02T07:30:12.411Z,2.6
2023-02-02T07:31:28.663Z,2.4
2023-02-02T07:32:44.891Z,2.7
2023-02-02T07:34:01.146Z,2.5
2023-02-02T07:35:17.391Z,2.2
2023-02-02T07:36:33.627Z,2.9
2023-02-02T07:37:49.862Z,2.4
2023-02-02T07:39:06.098Z,2.5
2023-02-02T07:40:22.335Z,2.2
2023-02-02T07:41:37.606Z,2.2
2023-02-02T07:42:53.834Z,2.4
2023-02-02T07:44:10.082Z,2
2023-02-02T07:45:26.335Z,2.3
2023-02-02T07:46:42.572Z,2
2023-02-02T07:47:58.805Z,2.2
2023-02-02T07:49:15.044Z,2.1
2023-02-02T07:50:31.280Z,2.2
2023-02-02T07:51:47.526Z,2.8
2023-02-02T07:53:03.778Z,3
2023-02-02T07:54:20.006Z,2.1
2023-02-02T07:55:36.257Z,2.3
2023-02-02T07:56:52.490Z,2.4
2023-02-02T07:58:07.753Z,2.6
2023-02-02T07:59:23.984Z,3.1
2023-02-02T08:00:40.233Z,3.3
2023-02-02T08:01:56.477Z,3
2023-02-02T08:03:12.716Z,2.5
2023-02-02T08:04:27.977Z,2.7
2023-02-02T08:05:44.219Z,2.5
2023-02-02T08:07:00.455Z,2.4
2023-02-02T08:08:16.686Z,2.4
2023-02-02T08:09:32.940Z,2.3
2023-02-02T08:10:49.183Z,2.6
2023-02-02T08:12:05.423Z,2.5
2023-02-02T08:14:37.901Z,2.4
2023-02-02T08:15:54.133Z,2.4
2023-02-02T08:17:10.372Z,2.3
2023-02-02T08:18:26.617Z,2.3
2023-02-02T08:19:42.857Z,2.4
2023-02-02T08:22:14.359Z,2.6
2023-02-02T08:23:30.602Z,2.7
2023-02-02T08:24:46.830Z,2.3
2023-02-02T08:26:03.086Z,2.6
2023-02-02T08:27:19.321Z,2.7
2023-02-02T08:28:35.566Z,2.7
2023-02-02T08:29:51.792Z,2.3
2023-02-02T08:31:08.040Z,2.8
2023-02-02T08:32:24.282Z,2.9
2023-02-02T08:33:40.519Z,2.9
2023-02-02T08:34:56.767Z,2.6
2023-02-02T08:37:29.243Z,2.3
2023-02-02T08:38:44.511Z,2.7
2023-02-02T08:39:59.766Z,2.7
2023-02-02T08:41:16.008Z,2.6
2023-02-02T08:42:32.241Z,2.6
2023-02-02T08:43:48.489Z,2.7
2023-02-02T08:45:04.734Z,2.6
2023-02-02T08:46:20.967Z,2.7
2023-02-02T08:47:37.211Z,2.7
2023-02-02T08:48:53.442Z,3.1
2023-02-02T08:50:09.695Z,2.6
2023-02-02T08:51:25.918Z,2.9
2023-02-02T08:52:41.184Z,3.1
2023-02-02T08:53:56.437Z,2.5
2023-02-02T08:55:12.683Z,2.7
2023-02-02T08:56:28.923Z,2.7
2023-02-02T08:57:45.178Z,2.8
2023-02-02T08:59:01.414Z,2.3
2023-02-02T09:00:17.659Z,2.8
2023-02-02T09:01:33.894Z,3.4
2023-02-02T09:02:50.124Z,2.9
2023-02-02T09:04:06.374Z,2.8
2023-02-02T09:05:22.607Z,2.6
2023-02-02T09:06:38.844Z,2.5
2023-02-02T09:07:55.101Z,2.6
2023-02-02T09:09:11.327Z,3.2
2023-02-02T09:10:26.594Z,2.7
2023-02-02T09:11:42.836Z,2.3
2023-02-02T09:12:59.066Z,2.9
2023-02-02T09:14:15.318Z,2.3
2023-02-02T09:15:31.551Z,2.5
2023-02-02T09:16:47.794Z,2.6
2023-02-02T09:18:04.036Z,2.5
2023-02-02T09:19:20.270Z,2.6
2023-02-02T09:20:36.514Z,2.5
2023-02-02T09:21:52.753Z,2.5
2023-02-02T09:23:08.990Z,2.5
2023-02-02T09:24:25.230Z,2.8
2023-02-02T09:25:41.476Z,2.4
2023-02-02T09:26:56.728Z,2.8
2023-02-02T09:28:12.968Z,2.5
2023-02-02T09:29:29.222Z,2.4
2023-02-02T09:30:45.461Z,2.7
2023-02-02T09:32:01.693Z,2.9
2023-02-02T09:33:17.935Z,2.9
2023-02-02T09:34:34.183Z,3.2
2023-02-02T09:35:50.418Z,2.9
2023-02-02T09:38:22.910Z,2.7
2023-02-02T09:39:39.144Z,2.9
2023-02-02T09:40:55.377Z,3.1
2023-02-02T09:42:11.619Z,3.2
2023-02-02T09:43:26.884Z,3.3
2023-02-02T09:45:59.354Z,3.2
2023-02-02T09:47:15.596Z,2.4
2023-02-02T09:48:31.836Z,2.7
2023-02-02T09:49:48.080Z,2.7
2023-02-02T09:51:04.323Z,2.9
2023-02-02T09:53:36.813Z,2.7
2023-02-02T09:54:52.073Z,3.4
2023-02-02T09:56:07.327Z,2.5
2023-02-02T09:57:23.559Z,2.8
2023-02-02T09:58:39.809Z,2.6
2023-02-02T10:01:12.285Z,2.4
2023-02-02T10:02:28.528Z,2.5
2023-02-02T10:03:44.769Z,2.6
2023-02-02T10:05:01.014Z,3
2023-02-02T10:06:17.253Z,3.2
2023-02-02T10:07:33.497Z,2.7
2023-02-02T10:08:49.735Z,2.7
2023-02-02T10:10:05.975Z,2.7
2023-02-02T10:11:22.206Z,2.5
2023-02-02T10:12:37.455Z,2.9
2023-02-02T10:13:53.710Z,2.5
2023-02-02T10:15:09.953Z,2.4
2023-02-02T10:16:26.177Z,2.7
2023-02-02T10:17:42.428Z,2.4
2023-02-02T10:18:58.659Z,2.7
2023-02-02T10:20:14.903Z,2.8
2023-02-02T10:21:31.146Z,2.9
2023-02-02T10:24:03.625Z,2.5
2023-02-02T10:25:19.872Z,2.6
2023-02-02T10:26:36.116Z,2.5
2023-02-02T10:27:51.380Z,2.1
2023-02-02T10:30:22.868Z,2.8
2023-02-02T10:31:39.104Z,2.4
2023-02-02T10:32:55.343Z,2.8
2023-02-02T10:34:11.589Z,2.9
2023-02-02T10:35:27.838Z,2.6
2023-02-02T10:36:44.080Z,2.5
2023-02-02T10:38:00.305Z,2.6
2023-02-02T10:39:16.564Z,2.7
2023-02-02T10:40:32.786Z,2.3
2023-02-02T10:41:49.044Z,2.4
2023-02-02T10:43:05.280Z,2.6
2023-02-02T10:44:21.516Z,2.6
2023-02-02T10:45:36.768Z,2.7
2023-02-02T10:46:53.013Z,2.5
2023-02-02T10:48:09.260Z,2.3
2023-02-02T10:49:25.495Z,2.6
2023-02-02T10:50:41.734Z,2.6
2023-02-02T10:51:57.970Z,2.8
2023-02-02T10:53:14.212Z,2.9
2023-02-02T10:54:30.456Z,3.1
2023-02-02T10:55:46.687Z,3.2
2023-02-02T10:57:02.940Z,2.6
2023-02-02T10:58:19.188Z,2.4
2023-02-02T10:59:35.413Z,2.2
2023-02-02T11:00:51.672Z,2.8
2023-02-02T11:02:06.911Z,2.5
2023-02-02T11:04:39.398Z,2.6
2023-02-02T11:05:55.643Z,2.9
2023-02-02T11:07:11.873Z,3
2023-02-02T11:08:28.131Z,2.8
2023-02-02T11:09:44.354Z,2.4
2023-02-02T11:11:00.594Z,2.5
2023-02-02T11:12:16.843Z,2.7
2023-02-02T11:13:33.076Z,3
2023-02-02T11:14:49.315Z,2.9
2023-02-02T11:16:05.571Z,3.3
2023-02-02T11:17:21.796Z,3.2
2023-02-02T11:18:37.054Z,3
2023-02-02T11:19:53.300Z,2.7
2023-02-02T11:21:09.535Z,2.5
2023-02-02T11:22:25.777Z,2.4
2023-02-02T11:24:58.270Z,2.9
2023-02-02T11:26:14.506Z,2.7
2023-02-02T11:27:30.746Z,2.6
2023-02-02T11:28:46.983Z,2.6
2023-02-02T11:30:03.224Z,2.3
2023-02-02T11:31:19.471Z,2.7
2023-02-02T11:32:35.705Z,2.4
2023-02-02T11:35:08.194Z,2.3
2023-02-02T11:37:39.684Z,2.4
2023-02-02T11:38:54.943Z,2.6
2023-02-02T11:40:11.197Z,2.7
2023-02-02T11:41:26.438Z,2.5
2023-02-02T11:42:42.693Z,2.9
2023-02-02T11:43:58.937Z,2.7
2023-02-02T11:45:15.174Z,2.7
2023-02-02T11:46:31.409Z,2.8
2023-02-02T11:47:47.644Z,2.6
2023-02-02T11:49:03.880Z,2.5
2023-02-02T11:50:20.129Z,3.2
2023-02-02T11:51:36.381Z,2.7
2023-02-02T11:52:51.636Z,2.7
2023-02-02T11:54:06.888Z,3
2023-02-02T11:55:23.131Z,2.7
2023-02-02T11:56:39.372Z,2.5
2023-02-02T11:57:55.603Z,2.5
2023-02-02T11:59:11.845Z,3.6
2023-02-02T12:00:28.098Z,3.1
2023-02-02T12:01:44.329Z,3
2023-02-02T12:03:00.572Z,3
2023-02-02T12:04:16.815Z,2.9
2023-02-02T12:05:33.053Z,2.9
2023-02-02T12:06:49.299Z,2.4
2023-02-02T12:08:05.530Z,2.7
2023-02-02T12:09:21.769Z,2.4
2023-02-02T12:10:37.043Z,2.4
2023-02-02T12:11:53.271Z,2.1
2023-02-02T12:13:09.516Z,2.5
2023-02-02T12:14:25.767Z,2.2
2023-02-02T12:15:42.008Z,2.4
2023-02-02T12:16:58.244Z,2.5
2023-02-02T12:18:14.487Z,2.3
2023-02-02T12:19:29.750Z,2.4
2023-02-02T12:20:45.983Z,2.4
2023-02-02T12:22:02.229Z,2.3
2023-02-02T12:23:18.465Z,2.4
2023-02-02T12:24:34.699Z,2.5
2023-02-02T12:25:50.936Z,2.4
2023-02-02T12:27:07.177Z,2.1
2023-02-02T12:28:23.419Z,2.1
2023-02-02T12:29:39.660Z,2.1
2023-02-02T12:30:55.904Z,1.8
2023-02-02T12:32:12.143Z,2
2023-02-02T12:33:28.390Z,2.1
2023-02-02T12:34:44.633Z,1.9
2023-02-02T12:35:59.892Z,1.9
2023-02-02T12:37:16.120Z,1.8
2023-02-02T12:38:32.356Z,1.9
2023-02-02T12:39:48.612Z,2.1
2023-02-02T12:41:04.845Z,2.3
2023-02-02T12:42:21.085Z,1.8
2023-02-02T12:43:37.315Z,2.1
2023-02-02T12:44:53.572Z,1.9
2023-02-02T12:46:09.812Z,2
2023-02-02T12:47:26.042Z,2.1
2023-02-02T12:48:42.276Z,2.3
2023-02-02T12:49:58.534Z,2.1
2023-02-02T12:51:14.769Z,2.1
2023-02-02T12:52:30.012Z,2.4
2023-02-02T12:53:46.255Z,2.5
2023-02-02T12:55:02.504Z,2.1
2023-02-02T12:56:18.748Z,2.5
2023-02-02T12:57:34.993Z,2.1
2023-02-02T12:58:51.214Z,2.3
2023-02-02T13:00:07.461Z,2
2023-02-02T13:01:23.701Z,2.6
2023-02-02T13:02:39.956Z,2
2023-02-02T13:03:56.180Z,2.5
2023-02-02T13:05:12.430Z,2
2023-02-02T13:06:28.668Z,2.6
2023-02-02T13:07:44.905Z,2.1
2023-02-02T13:09:00.161Z,2
2023-02-02T13:10:16.417Z,2.1
2023-02-02T13:11:32.648Z,2.2
2023-02-02T13:12:48.879Z,2.2
2023-02-02T13:14:05.135Z,2.2
2023-02-02T13:15:21.375Z,2
2023-02-02T13:16:37.619Z,1.9
2023-02-02T13:19:10.094Z,1.9
2023-02-02T13:20:26.337Z,2.2
2023-02-02T13:21:42.577Z,1.8
2023-02-02T13:22:58.818Z,2.4
2023-02-02T13:24:15.048Z,1.7
2023-02-02T13:25:30.316Z,2.2
2023-02-02T13:26:46.557Z,3
2023-02-02T13:28:02.790Z,2
2023-02-02T13:29:19.040Z,2.1
2023-02-02T13:30:35.282Z,1.8
2023-02-02T13:31:51.516Z,2
2023-02-02T13:34:23.993Z,2.2
2023-02-02T13:35:40.236Z,2.2
2023-02-02T13:36:56.476Z,2.2
2023-02-02T13:38:12.724Z,2
2023-02-02T13:39:28.954Z,1.9
2023-02-02T13:40:45.193Z,2.2
2023-02-02T13:42:00.450Z,2.2
2023-02-02T13:43:16.693Z,2.4
2023-02-02T13:44:32.930Z,1.8
2023-02-02T13:45:49.179Z,2.3
2023-02-02T13:47:05.416Z,1.9
2023-02-02T13:48:21.669Z,1.9
2023-02-02T13:49:37.899Z,2
2023-02-02T13:50:54.147Z,2
2023-02-02T13:52:10.379Z,2.1
2023-02-02T13:53:26.614Z,2
2023-02-02T13:54:42.856Z,1.8
2023-02-02T13:55:59.096Z,1.9
2023-02-02T13:57:15.343Z,1.9
2023-02-02T13:58:31.578Z,2.1
2023-02-02T13:59:46.832Z,1.9
2023-02-02T14:01:03.081Z,2
2023-02-02T14:02:19.312Z,1.8
2023-02-02T14:03:35.566Z,2.3
2023-02-02T14:04:51.797Z,1.9
2023-02-02T14:06:08.048Z,2.3
2023-02-02T14:07:24.290Z,2
2023-02-02T14:08:40.528Z,2.3
2023-02-02T14:09:56.760Z,2.4
2023-02-02T14:11:12.999Z,1.9
2023-02-02T14:12:29.240Z,2
2023-02-02T14:13:45.477Z,2.7
2023-02-02T14:15:01.725Z,2
2023-02-02T14:16:16.992Z,2.2
2023-02-02T14:17:33.224Z,2.3
2023-02-02T14:18:49.469Z,1.9
2023-02-02T14:20:05.713Z,2.3
2023-02-02T14:21:21.949Z,2.3
2023-02-02T14:22:38.195Z,2.3
2023-02-02T14:23:54.433Z,2.3
2023-02-02T14:25:10.658Z,2.4
2023-02-02T14:26:26.917Z,2.3
2023-02-02T14:27:43.147Z,2.2
2023-02-02T14:28:59.388Z,2.2
2023-02-02T14:30:15.633Z,2.4
2023-02-02T14:31:31.866Z,2.3
2023-02-02T14:32:47.122Z,2.2
2023-02-02T14:34:03.374Z,2.2
2023-02-02T14:35:19.609Z,2.2
2023-02-02T14:36:35.858Z,2.4
2023-02-02T14:37:52.082Z,2.3
2023-02-02T14:39:08.340Z,2.3
2023-02-02T14:40:24.579Z,2.2
2023-02-02T14:41:40.811Z,2.5
2023-02-02T14:42:57.051Z,2.3
2023-02-02T14:44:13.287Z,2.7
2023-02-02T14:45:29.535Z,2.5
2023-02-02T14:46:45.781Z,2.8
2023-02-02T14:48:02.006Z,2.4
2023-02-02T14:49:17.272Z,2.5
2023-02-02T14:50:33.506Z,2.7
2023-02-02T14:51:49.762Z,3.3
2023-02-02T14:53:05.993Z,2.9
2023-02-02T14:54:22.229Z,2.5
2023-02-02T14:55:38.483Z,2.6
2023-02-02T14:56:54.722Z,2.5
2023-02-02T14:58:10.954Z,2.5
2023-02-02T14:59:27.187Z,2.6
2023-02-02T15:00:43.430Z,2.6
2023-02-02T15:01:59.684Z,2.4
2023-02-02T15:03:15.914Z,2.6
2023-02-02T15:04:32.154Z,2.8
2023-02-02T15:05:47.405Z,2.8
2023-02-02T15:07:03.666Z,3.1
2023-02-02T15:08:19.900Z,2.8
2023-02-02T15:09:36.147Z,2.7
2023-02-02T15:10:52.386Z,2.8
2023-02-02T15:12:08.626Z,2.4
2023-02-02T15:13:24.848Z,2.6
2023-02-02T15:14:41.106Z,2.4
2023-02-02T15:15:57.340Z,2.8
2023-02-02T15:18:29.811Z,3.1
2023-02-02T15:19:46.066Z,2.8
2023-02-02T15:21:02.304Z,2.5
2023-02-02T15:22:18.532Z,2.6
2023-02-02T15:23:33.789Z,2.8
2023-02-02T15:24:50.049Z,2.5
2023-02-02T15:26:06.280Z,2.6
2023-02-02T15:28:38.767Z,2.6
2023-02-02T15:29:54.992Z,2.4
2023-02-02T15:31:11.251Z,2.3
2023-02-02T15:32:27.476Z,2.1
2023-02-02T15:33:43.725Z,2.3
2023-02-02T15:34:59.964Z,2.2
2023-02-02T15:36:16.193Z,2.1
2023-02-02T15:37:32.437Z,2.2
2023-02-02T15:38:48.676Z,2.2
2023-02-02T15:40:03.944Z,2.6
2023-02-02T15:41:20.190Z,2.6
2023-02-02T15:42:36.429Z,2.8
2023-02-02T15:43:52.664Z,2.7
2023-02-02T15:45:08.904Z,3.1
2023-02-02T15:46:25.148Z,2.9
2023-02-02T15:47:41.395Z,3.5
2023-02-02T15:48:57.624Z,3.7
2023-02-02T15:50:13.865Z,3.3
2023-02-02T15:51:30.107Z,3.6
2023-02-02T15:52:46.358Z,2.8
2023-02-02T15:54:02.578Z,3.4
2023-02-02T15:55:18.836Z,4.1
2023-02-02T15:56:34.094Z,4.2
2023-02-02T15:57:50.338Z,4.9
2023-02-02T15:59:06.576Z,7.3
2023-02-02T16:00:22.798Z,7.3
2023-02-02T16:01:39.052Z,6.4
2023-02-02T16:02:55.290Z,7.2
2023-02-02T16:04:11.523Z,5.8
2023-02-02T16:05:27.767Z,5.3
2023-02-02T16:06:44.018Z,11.3
2023-02-02T16:08:00.254Z,11.2
2023-02-02T16:09:16.494Z,9.5
2023-02-02T16:10:32.731Z,5.5
2023-02-02T16:11:48.966Z,6
2023-02-02T16:13:04.221Z,4.3
2023-02-02T16:14:20.463Z,3.9
2023-02-02T16:15:36.715Z,3.8
2023-02-02T16:16:52.962Z,4
2023-02-02T16:18:09.199Z,4.1
2023-02-02T16:19:25.443Z,4.4
2023-02-02T16:20:41.672Z,5.1
2023-02-02T16:21:57.907Z,5.3
2023-02-02T16:23:14.146Z,5.9
2023-02-02T16:24:30.394Z,6.4
2023-02-02T16:25:46.647Z,5.5
2023-02-02T16:27:02.881Z,5.1
2023-02-02T16:28:19.124Z,5.3
2023-02-02T16:29:34.367Z,4.8
2023-02-02T16:30:50.618Z,5.8
2023-02-02T16:32:06.866Z,5.2
2023-02-02T16:33:23.093Z,5
2023-02-02T16:34:38.409Z,4.9
2023-02-02T16:35:54.712Z,5
2023-02-02T16:37:11.003Z,5.4
2023-02-02T16:38:27.293Z,7
2023-02-02T16:39:43.584Z,8.9
2023-02-02T16:40:59.895Z,8.8
2023-02-02T16:42:16.189Z,9.1
2023-02-02T16:43:32.485Z,8.8
2023-02-02T16:44:48.781Z,7.8
2023-02-02T16:46:05.070Z,9
2023-02-02T16:47:21.365Z,9.1
2023-02-02T16:48:37.645Z,9.1
2023-02-02T16:49:53.954Z,10.3
2023-02-02T16:51:10.356Z,8.2
2023-02-02T16:52:26.671Z,6.2
2023-02-02T16:53:42.956Z,5.3
2023-02-02T16:54:59.256Z,5.4
2023-02-02T16:56:15.552Z,5
2023-02-02T16:57:31.834Z,5.6
2023-02-02T17:00:04.425Z,5.4
2023-02-02T17:01:20.731Z,5.8
2023-02-02T17:02:37.022Z,5.6
2023-02-02T17:03:53.311Z,5.8
2023-02-02T17:05:09.597Z,4.9
2023-02-02T17:06:25.911Z,4.3
2023-02-02T17:07:41.208Z,4.8
2023-02-02T17:08:57.505Z,4.9
2023-02-02T17:10:13.805Z,4.5
2023-02-02T17:11:30.091Z,4.2
2023-02-02T17:12:46.402Z,4.5
2023-02-02T17:14:02.683Z,4
2023-02-02T17:15:18.990Z,4.5
2023-02-02T17:16:35.279Z,4.8
2023-02-02T17:17:51.570Z,4.5
2023-02-02T17:19:07.855Z,4
2023-02-02T17:20:24.161Z,4.1
2023-02-02T17:22:56.756Z,3.6
2023-02-02T17:24:12.057Z,4
2023-02-02T17:25:28.359Z,4.7
2023-02-02T17:26:44.643Z,4.6
2023-02-02T17:28:00.937Z,4.3
2023-02-02T17:29:17.235Z,4.5
2023-02-02T17:30:33.536Z,5.6
2023-02-02T17:31:49.829Z,5
2023-02-02T17:33:06.119Z,5.4
2023-02-02T17:34:22.364Z,6
2023-02-02T17:35:38.664Z,5.8
2023-02-02T17:36:54.975Z,6.4
2023-02-02T17:38:11.248Z,6.1
2023-02-02T17:39:27.560Z,6.1
2023-02-02T17:40:42.865Z,5.1
2023-02-02T17:41:59.166Z,5.3
2023-02-02T17:43:15.448Z,5
2023-02-02T17:44:31.751Z,4.9
2023-02-02T17:45:48.043Z,5.5
2023-02-02T17:47:04.328Z,6.2
2023-02-02T17:48:20.627Z,6.9
2023-02-02T17:49:36.920Z,7.8
2023-02-02T17:50:53.222Z,8.4
2023-02-02T17:52:09.529Z,8.1
2023-02-02T17:53:25.818Z,9.2
2023-02-02T17:54:42.115Z,6.8
2023-02-02T17:55:58.393Z,6.1
2023-02-02T17:57:13.718Z,6.5
2023-02-02T17:58:30.008Z,6.9
2023-02-02T17:59:46.309Z,7
2023-02-02T18:01:02.593Z,7
2023-02-02T18:02:18.881Z,5.8
2023-02-02T18:03:35.180Z,6.7
2023-02-02T18:04:51.477Z,7.9
2023-02-02T18:06:07.781Z,6.9
2023-02-02T18:07:24.064Z,6.2
2023-02-02T18:08:40.353Z,7.2
2023-02-02T18:09:56.652Z,6.7
2023-02-02T18:11:12.951Z,6.8
2023-02-02T18:12:29.254Z,6.7
2023-02-02T18:13:44.561Z,6.1
2023-02-02T18:15:00.860Z,6.1